sensor_id;sensor_type;location;lat;lon;timestamp;P1;durP1;ratioP1;P2;durP2;ratioP2
57231;SDS011;43488;46.934;8.276;2023-07-16T00:02:08;658.22;;;450.25;;
57231;SDS011;43488;46.934;8.276;2023-07-16T00:04:36;659.47;;;452.05;;
57231;SDS011;43488;46.934;8.276;2023-07-16T00:07:04;650.83;;;403.70;;
57231;SDS011;43488;46.934;8.276;2023-07-16T00:09:33;635.80;;;437.73;;
57231;SDS011;43488;46.934;8.276;2023-07-16T00:12:00;634.53;;;438.20;;
57231;SDS011;43488;46.934;8.276;2023-07-16T00:14:28;631.88;;;425.55;;
57231;SDS011;43488;46.934;8.276;2023-07-16T00:16:55;646.35;;;390.58;;
57231;SDS011;43488;46.934;8.276;2023-07-16T00:19:24;649.22;;;443.50;;
57231;SDS011;43488;46.934;8.276;2023-07-16T00:21:51;638.55;;;418.33;;
57231;SDS011;43488;46.934;8.276;2023-07-16T00:24:18;634.78;;;357.90;;
57231;SDS011;43488;46.934;8.276;2023-07-16T00:26:48;632.92;;;378.52;;
57231;SDS011;43488;46.934;8.276;2023-07-16T00:29:15;631.72;;;345.95;;
57231;SDS011;43488;46.934;8.276;2023-07-16T00:31:42;623.45;;;410.00;;
57231;SDS011;43488;46.934;8.276;2023-07-16T00:34:10;611.25;;;293.95;;
57231;SDS011;43488;46.934;8.276;2023-07-16T00:36:39;628.75;;;422.55;;
57231;SDS011;43488;46.934;8.276;2023-07-16T00:39:06;623.78;;;382.73;;
57231;SDS011;43488;46.934;8.276;2023-07-16T00:41:33;643.47;;;354.38;;
57231;SDS011;43488;46.934;8.276;2023-07-16T00:44:01;638.00;;;351.67;;
57231;SDS011;43488;46.934;8.276;2023-07-16T00:46:28;648.67;;;424.30;;
57231;SDS011;43488;46.934;8.276;2023-07-16T00:48:56;658.13;;;452.52;;
57231;SDS011;43488;46.934;8.276;2023-07-16T00:51:24;667.40;;;398.42;;
57231;SDS011;43488;46.934;8.276;2023-07-16T00:53:53;662.45;;;376.63;;
57231;SDS011;43488;46.934;8.276;2023-07-16T00:56:20;670.63;;;392.30;;
57231;SDS011;43488;46.934;8.276;2023-07-16T00:58:49;663.83;;;443.73;;
57231;SDS011;43488;46.934;8.276;2023-07-16T01:01:18;650.15;;;375.58;;
57231;SDS011;43488;46.934;8.276;2023-07-16T01:03:45;648.65;;;441.52;;
57231;SDS011;43488;46.934;8.276;2023-07-16T01:06:18;645.30;;;441.13;;
57231;SDS011;43488;46.934;8.276;2023-07-16T01:09:10;639.60;;;325.75;;
57231;SDS011;43488;46.934;8.276;2023-07-16T01:11:44;638.72;;;433.65;;
57231;SDS011;43488;46.934;8.276;2023-07-16T01:14:14;646.25;;;369.58;;
57231;SDS011;43488;46.934;8.276;2023-07-16T01:16:44;650.37;;;439.73;;
57231;SDS011;43488;46.934;8.276;2023-07-16T01:19:14;647.20;;;360.52;;
57231;SDS011;43488;46.934;8.276;2023-07-16T01:30:32;664.28;;;381.73;;
57231;SDS011;43488;46.934;8.276;2023-07-16T01:33:03;663.60;;;378.63;;
57231;SDS011;43488;46.934;8.276;2023-07-16T01:35:32;661.75;;;445.40;;
57231;SDS011;43488;46.934;8.276;2023-07-16T01:38:01;673.53;;;385.63;;
57231;SDS011;43488;46.934;8.276;2023-07-16T01:40:29;670.75;;;389.25;;
57231;SDS011;43488;46.934;8.276;2023-07-16T01:42:57;672.40;;;383.35;;
57231;SDS011;43488;46.934;8.276;2023-07-16T01:45:24;649.53;;;372.95;;
57231;SDS011;43488;46.934;8.276;2023-07-16T01:47:59;667.30;;;385.65;;
57231;SDS011;43488;46.934;8.276;2023-07-16T01:50:35;661.35;;;442.52;;
57231;SDS011;43488;46.934;8.276;2023-07-16T01:53:04;647.08;;;375.75;;
57231;SDS011;43488;46.934;8.276;2023-07-16T01:55:32;664.33;;;452.35;;
57231;SDS011;43488;46.934;8.276;2023-07-16T01:57:59;682.63;;;457.25;;
57231;SDS011;43488;46.934;8.276;2023-07-16T02:00:26;684.45;;;432.67;;
57231;SDS011;43488;46.934;8.276;2023-07-16T02:02:54;680.90;;;435.83;;
57231;SDS011;43488;46.934;8.276;2023-07-16T02:05:22;682.72;;;448.27;;
57231;SDS011;43488;46.934;8.276;2023-07-16T02:07:49;681.75;;;372.67;;
57231;SDS011;43488;46.934;8.276;2023-07-16T02:10:16;677.75;;;365.20;;
57231;SDS011;43488;46.934;8.276;2023-07-16T02:12:43;682.72;;;440.42;;
57231;SDS011;43488;46.934;8.276;2023-07-16T02:15:11;688.08;;;442.90;;
57231;SDS011;43488;46.934;8.276;2023-07-16T02:17:38;692.15;;;376.42;;
57231;SDS011;43488;46.934;8.276;2023-07-16T02:20:07;690.40;;;367.98;;
57231;SDS011;43488;46.934;8.276;2023-07-16T02:22:38;691.10;;;390.73;;
57231;SDS011;43488;46.934;8.276;2023-07-16T02:25:05;681.45;;;374.88;;
57231;SDS011;43488;46.934;8.276;2023-07-16T02:27:33;645.50;;;435.45;;
57231;SDS011;43488;46.934;8.276;2023-07-16T02:30:00;682.80;;;373.02;;
57231;SDS011;43488;46.934;8.276;2023-07-16T02:32:28;674.88;;;367.30;;
57231;SDS011;43488;46.934;8.276;2023-07-16T02:34:55;681.17;;;444.05;;
57231;SDS011;43488;46.934;8.276;2023-07-16T02:37:22;651.13;;;370.35;;
57231;SDS011;43488;46.934;8.276;2023-07-16T02:39:50;646.67;;;363.67;;
57231;SDS011;43488;46.934;8.276;2023-07-16T02:42:17;642.30;;;430.67;;
57231;SDS011;43488;46.934;8.276;2023-07-16T02:44:45;641.47;;;368.88;;
57231;SDS011;43488;46.934;8.276;2023-07-16T02:47:13;642.63;;;378.40;;
57231;SDS011;43488;46.934;8.276;2023-07-16T02:49:40;639.20;;;361.88;;
57231;SDS011;43488;46.934;8.276;2023-07-16T02:52:08;642.60;;;371.02;;
57231;SDS011;43488;46.934;8.276;2023-07-16T02:54:35;640.42;;;368.85;;
57231;SDS011;43488;46.934;8.276;2023-07-16T02:57:03;644.03;;;379.80;;
57231;SDS011;43488;46.934;8.276;2023-07-16T02:59:31;644.38;;;373.80;;
57231;SDS011;43488;46.934;8.276;2023-07-16T03:01:59;645.00;;;375.30;;
57231;SDS011;43488;46.934;8.276;2023-07-16T03:04:27;640.55;;;365.83;;
57231;SDS011;43488;46.934;8.276;2023-07-16T03:06:54;650.50;;;370.45;;
57231;SDS011;43488;46.934;8.276;2023-07-16T03:09:22;641.75;;;431.05;;
57231;SDS011;43488;46.934;8.276;2023-07-16T03:11:50;644.65;;;369.35;;
57231;SDS011;43488;46.934;8.276;2023-07-16T03:14:18;666.75;;;439.63;;
57231;SDS011;43488;46.934;8.276;2023-07-16T03:16:45;668.17;;;438.88;;
57231;SDS011;43488;46.934;8.276;2023-07-16T03:19:12;649.28;;;367.88;;
57231;SDS011;43488;46.934;8.276;2023-07-16T03:21:40;676.85;;;443.85;;
57231;SDS011;43488;46.934;8.276;2023-07-16T03:24:07;651.67;;;439.20;;
57231;SDS011;43488;46.934;8.276;2023-07-16T03:26:35;684.42;;;440.20;;
57231;SDS011;43488;46.934;8.276;2023-07-16T03:29:03;686.17;;;433.25;;
57231;SDS011;43488;46.934;8.276;2023-07-16T03:31:30;658.45;;;370.65;;
57231;SDS011;43488;46.934;8.276;2023-07-16T03:33:58;695.92;;;404.20;;
57231;SDS011;43488;46.934;8.276;2023-07-16T03:36:25;686.05;;;459.90;;
57231;SDS011;43488;46.934;8.276;2023-07-16T03:38:53;684.10;;;454.95;;
57231;SDS011;43488;46.934;8.276;2023-07-16T03:41:20;681.40;;;376.25;;
57231;SDS011;43488;46.934;8.276;2023-07-16T03:43:48;690.63;;;450.17;;
57231;SDS011;43488;46.934;8.276;2023-07-16T03:46:17;697.63;;;452.45;;
57231;SDS011;43488;46.934;8.276;2023-07-16T03:48:45;698.70;;;437.02;;
57231;SDS011;43488;46.934;8.276;2023-07-16T03:51:13;708.53;;;445.30;;
57231;SDS011;43488;46.934;8.276;2023-07-16T03:53:40;683.40;;;372.17;;
57231;SDS011;43488;46.934;8.276;2023-07-16T03:56:07;693.72;;;448.13;;
57231;SDS011;43488;46.934;8.276;2023-07-16T03:58:35;675.60;;;363.88;;
57231;SDS011;43488;46.934;8.276;2023-07-16T04:01:02;682.42;;;382.58;;
57231;SDS011;43488;46.934;8.276;2023-07-16T04:03:30;673.80;;;369.23;;
57231;SDS011;43488;46.934;8.276;2023-07-16T04:06:08;677.05;;;441.17;;
57231;SDS011;43488;46.934;8.276;2023-07-16T04:08:37;678.15;;;435.98;;
57231;SDS011;43488;46.934;8.276;2023-07-16T04:11:04;667.58;;;431.33;;
57231;SDS011;43488;46.934;8.276;2023-07-16T04:13:33;674.40;;;442.35;;
57231;SDS011;43488;46.934;8.276;2023-07-16T04:16:00;670.90;;;377.95;;
57231;SDS011;43488;46.934;8.276;2023-07-16T04:18:27;674.47;;;442.25;;
57231;SDS011;43488;46.934;8.276;2023-07-16T04:20:55;673.70;;;443.40;;
57231;SDS011;43488;46.934;8.276;2023-07-16T04:23:26;667.42;;;378.38;;
57231;SDS011;43488;46.934;8.276;2023-07-16T04:25:54;672.92;;;372.52;;
57231;SDS011;43488;46.934;8.276;2023-07-16T04:28:22;680.38;;;435.00;;
57231;SDS011;43488;46.934;8.276;2023-07-16T04:30:49;667.50;;;363.42;;
57231;SDS011;43488;46.934;8.276;2023-07-16T04:33:18;671.88;;;375.35;;
57231;SDS011;43488;46.934;8.276;2023-07-16T04:35:45;671.58;;;372.05;;
57231;SDS011;43488;46.934;8.276;2023-07-16T04:38:12;680.10;;;439.67;;
57231;SDS011;43488;46.934;8.276;2023-07-16T04:40:41;670.58;;;369.02;;
57231;SDS011;43488;46.934;8.276;2023-07-16T04:43:10;675.05;;;432.60;;
57231;SDS011;43488;46.934;8.276;2023-07-16T04:45:42;671.58;;;443.13;;
57231;SDS011;43488;46.934;8.276;2023-07-16T04:48:13;668.10;;;365.90;;
57231;SDS011;43488;46.934;8.276;2023-07-16T04:50:40;665.83;;;368.38;;
57231;SDS011;43488;46.934;8.276;2023-07-16T04:53:08;661.47;;;366.15;;
57231;SDS011;43488;46.934;8.276;2023-07-16T04:55:38;671.30;;;387.17;;
57231;SDS011;43488;46.934;8.276;2023-07-16T04:58:06;662.70;;;365.23;;
57231;SDS011;43488;46.934;8.276;2023-07-16T05:00:33;663.25;;;370.15;;
57231;SDS011;43488;46.934;8.276;2023-07-16T05:03:01;668.45;;;439.25;;
57231;SDS011;43488;46.934;8.276;2023-07-16T05:05:29;667.00;;;386.20;;
57231;SDS011;43488;46.934;8.276;2023-07-16T05:07:56;668.47;;;434.50;;
57231;SDS011;43488;46.934;8.276;2023-07-16T05:10:24;663.88;;;436.15;;
57231;SDS011;43488;46.934;8.276;2023-07-16T05:12:55;669.90;;;443.00;;
57231;SDS011;43488;46.934;8.276;2023-07-16T05:15:22;663.05;;;375.45;;
57231;SDS011;43488;46.934;8.276;2023-07-16T05:17:50;670.10;;;447.58;;
57231;SDS011;43488;46.934;8.276;2023-07-16T05:20:18;665.08;;;443.48;;
57231;SDS011;43488;46.934;8.276;2023-07-16T05:22:45;668.75;;;441.73;;
57231;SDS011;43488;46.934;8.276;2023-07-16T05:25:13;666.03;;;453.90;;
57231;SDS011;43488;46.934;8.276;2023-07-16T05:27:40;658.67;;;435.50;;
57231;SDS011;43488;46.934;8.276;2023-07-16T05:30:07;664.38;;;442.15;;
57231;SDS011;43488;46.934;8.276;2023-07-16T05:32:36;661.20;;;382.20;;
57231;SDS011;43488;46.934;8.276;2023-07-16T05:35:04;665.80;;;381.00;;
57231;SDS011;43488;46.934;8.276;2023-07-16T05:37:32;664.95;;;436.98;;
57231;SDS011;43488;46.934;8.276;2023-07-16T05:40:00;658.92;;;371.52;;
57231;SDS011;43488;46.934;8.276;2023-07-16T05:42:28;662.15;;;376.42;;
57231;SDS011;43488;46.934;8.276;2023-07-16T05:44:55;660.63;;;380.15;;
57231;SDS011;43488;46.934;8.276;2023-07-16T05:47:23;667.55;;;441.10;;
57231;SDS011;43488;46.934;8.276;2023-07-16T05:49:50;659.05;;;379.48;;
57231;SDS011;43488;46.934;8.276;2023-07-16T05:52:18;662.60;;;442.55;;
57231;SDS011;43488;46.934;8.276;2023-07-16T05:54:46;667.50;;;389.85;;
57231;SDS011;43488;46.934;8.276;2023-07-16T05:57:13;657.97;;;377.35;;
57231;SDS011;43488;46.934;8.276;2023-07-16T05:59:41;661.17;;;445.40;;
57231;SDS011;43488;46.934;8.276;2023-07-16T06:02:08;662.63;;;442.02;;
57231;SDS011;43488;46.934;8.276;2023-07-16T06:04:36;660.00;;;382.38;;
57231;SDS011;43488;46.934;8.276;2023-07-16T06:07:03;659.63;;;377.90;;
57231;SDS011;43488;46.934;8.276;2023-07-16T06:09:30;658.22;;;446.40;;
57231;SDS011;43488;46.934;8.276;2023-07-16T06:11:58;658.35;;;444.80;;
57231;SDS011;43488;46.934;8.276;2023-07-16T06:14:25;660.95;;;454.83;;
57231;SDS011;43488;46.934;8.276;2023-07-16T06:16:52;650.20;;;369.52;;
57231;SDS011;43488;46.934;8.276;2023-07-16T06:19:20;651.70;;;446.05;;
57231;SDS011;43488;46.934;8.276;2023-07-16T06:21:47;653.00;;;444.38;;
57231;SDS011;43488;46.934;8.276;2023-07-16T06:24:14;652.53;;;449.00;;
57231;SDS011;43488;46.934;8.276;2023-07-16T06:26:41;648.40;;;374.77;;
57231;SDS011;43488;46.934;8.276;2023-07-16T06:29:09;649.22;;;381.05;;
57231;SDS011;43488;46.934;8.276;2023-07-16T06:31:36;654.00;;;458.38;;
57231;SDS011;43488;46.934;8.276;2023-07-16T06:34:03;658.53;;;397.00;;
57231;SDS011;43488;46.934;8.276;2023-07-16T06:36:31;644.40;;;375.27;;
57231;SDS011;43488;46.934;8.276;2023-07-16T06:38:59;621.50;;;363.35;;
57231;SDS011;43488;46.934;8.276;2023-07-16T06:41:26;619.90;;;434.95;;
57231;SDS011;43488;46.934;8.276;2023-07-16T06:43:58;631.30;;;434.25;;
57231;SDS011;43488;46.934;8.276;2023-07-16T06:46:25;648.63;;;431.50;;
57231;SDS011;43488;46.934;8.276;2023-07-16T06:48:52;651.67;;;441.65;;
57231;SDS011;43488;46.934;8.276;2023-07-16T06:51:19;654.35;;;376.55;;
57231;SDS011;43488;46.934;8.276;2023-07-16T06:53:47;665.17;;;391.80;;
57231;SDS011;43488;46.934;8.276;2023-07-16T06:56:14;660.25;;;374.70;;
57231;SDS011;43488;46.934;8.276;2023-07-16T06:58:42;659.08;;;383.13;;
57231;SDS011;43488;46.934;8.276;2023-07-16T07:01:09;662.03;;;378.23;;
57231;SDS011;43488;46.934;8.276;2023-07-16T07:03:37;657.90;;;383.50;;
57231;SDS011;43488;46.934;8.276;2023-07-16T07:06:04;663.10;;;378.85;;
57231;SDS011;43488;46.934;8.276;2023-07-16T07:08:31;660.45;;;432.85;;
57231;SDS011;43488;46.934;8.276;2023-07-16T07:10:58;668.25;;;445.83;;
57231;SDS011;43488;46.934;8.276;2023-07-16T07:13:26;666.17;;;392.75;;
57231;SDS011;43488;46.934;8.276;2023-07-16T07:15:53;669.83;;;449.42;;
57231;SDS011;43488;46.934;8.276;2023-07-16T07:18:20;666.53;;;433.02;;
57231;SDS011;43488;46.934;8.276;2023-07-16T07:20:48;665.28;;;388.80;;
57231;SDS011;43488;46.934;8.276;2023-07-16T07:23:15;667.88;;;458.63;;
57231;SDS011;43488;46.934;8.276;2023-07-16T07:25:43;669.05;;;436.60;;
57231;SDS011;43488;46.934;8.276;2023-07-16T07:30:41;670.83;;;443.88;;
57231;SDS011;43488;46.934;8.276;2023-07-16T07:33:08;664.45;;;386.92;;
57231;SDS011;43488;46.934;8.276;2023-07-16T07:35:36;662.75;;;376.23;;
57231;SDS011;43488;46.934;8.276;2023-07-16T07:38:03;669.75;;;444.67;;
57231;SDS011;43488;46.934;8.276;2023-07-16T07:40:31;670.67;;;455.05;;
57231;SDS011;43488;46.934;8.276;2023-07-16T07:42:58;666.05;;;452.67;;
57231;SDS011;43488;46.934;8.276;2023-07-16T07:45:27;637.65;;;379.17;;
57231;SDS011;43488;46.934;8.276;2023-07-16T07:47:54;642.35;;;391.35;;
57231;SDS011;43488;46.934;8.276;2023-07-16T07:50:22;616.72;;;417.42;;
57231;SDS011;43488;46.934;8.276;2023-07-16T07:52:50;642.55;;;448.00;;
57231;SDS011;43488;46.934;8.276;2023-07-16T07:55:18;646.20;;;445.65;;
57231;SDS011;43488;46.934;8.276;2023-07-16T07:57:45;650.63;;;458.48;;
57231;SDS011;43488;46.934;8.276;2023-07-16T08:00:12;631.92;;;442.42;;
57231;SDS011;43488;46.934;8.276;2023-07-16T08:02:40;642.70;;;398.55;;
57231;SDS011;43488;46.934;8.276;2023-07-16T08:05:07;640.40;;;384.98;;
57231;SDS011;43488;46.934;8.276;2023-07-16T08:07:35;647.90;;;454.55;;
57231;SDS011;43488;46.934;8.276;2023-07-16T08:10:03;649.17;;;399.75;;
57231;SDS011;43488;46.934;8.276;2023-07-16T08:12:32;635.42;;;451.52;;
57231;SDS011;43488;46.934;8.276;2023-07-16T08:14:59;651.67;;;397.98;;
57231;SDS011;43488;46.934;8.276;2023-07-16T08:17:28;652.67;;;452.45;;
57231;SDS011;43488;46.934;8.276;2023-07-16T08:19:57;651.22;;;394.17;;
57231;SDS011;43488;46.934;8.276;2023-07-16T08:22:25;643.42;;;445.00;;
57231;SDS011;43488;46.934;8.276;2023-07-16T08:24:52;648.47;;;450.10;;
57231;SDS011;43488;46.934;8.276;2023-07-16T08:27:20;641.00;;;384.73;;
57231;SDS011;43488;46.934;8.276;2023-07-16T08:29:47;640.30;;;378.40;;
57231;SDS011;43488;46.934;8.276;2023-07-16T08:32:15;646.05;;;394.58;;
57231;SDS011;43488;46.934;8.276;2023-07-16T08:34:43;639.55;;;437.67;;
57231;SDS011;43488;46.934;8.276;2023-07-16T08:37:11;636.80;;;372.90;;
57231;SDS011;43488;46.934;8.276;2023-07-16T08:39:38;641.70;;;449.92;;
57231;SDS011;43488;46.934;8.276;2023-07-16T08:42:06;645.70;;;394.20;;
57231;SDS011;43488;46.934;8.276;2023-07-16T08:44:37;638.15;;;443.00;;
57231;SDS011;43488;46.934;8.276;2023-07-16T08:47:06;641.38;;;389.25;;
57231;SDS011;43488;46.934;8.276;2023-07-16T08:49:34;634.33;;;440.58;;
57231;SDS011;43488;46.934;8.276;2023-07-16T08:52:02;639.78;;;394.45;;
57231;SDS011;43488;46.934;8.276;2023-07-16T08:54:31;642.20;;;393.33;;
57231;SDS011;43488;46.934;8.276;2023-07-16T08:56:59;636.97;;;385.98;;
57231;SDS011;43488;46.934;8.276;2023-07-16T08:59:26;633.75;;;370.48;;
57231;SDS011;43488;46.934;8.276;2023-07-16T09:01:54;629.30;;;379.85;;
57231;SDS011;43488;46.934;8.276;2023-07-16T09:04:22;619.17;;;426.77;;
57231;SDS011;43488;46.934;8.276;2023-07-16T09:06:49;632.70;;;375.80;;
57231;SDS011;43488;46.934;8.276;2023-07-16T09:09:21;629.28;;;378.65;;
57231;SDS011;43488;46.934;8.276;2023-07-16T09:11:50;635.75;;;394.35;;
57231;SDS011;43488;46.934;8.276;2023-07-16T09:14:18;624.28;;;434.40;;
57231;SDS011;43488;46.934;8.276;2023-07-16T09:16:48;636.97;;;391.70;;
57231;SDS011;43488;46.934;8.276;2023-07-16T09:19:17;633.28;;;378.63;;
57231;SDS011;43488;46.934;8.276;2023-07-16T09:21:48;627.65;;;374.98;;
57231;SDS011;43488;46.934;8.276;2023-07-16T09:24:17;620.05;;;427.00;;
57231;SDS011;43488;46.934;8.276;2023-07-16T09:26:52;629.72;;;440.65;;
57231;SDS011;43488;46.934;8.276;2023-07-16T09:29:25;632.83;;;384.42;;
57231;SDS011;43488;46.934;8.276;2023-07-16T09:32:00;638.47;;;391.52;;
57231;SDS011;43488;46.934;8.276;2023-07-16T09:34:29;630.08;;;374.35;;
57231;SDS011;43488;46.934;8.276;2023-07-16T09:36:59;632.45;;;381.02;;
57231;SDS011;43488;46.934;8.276;2023-07-16T09:39:28;631.80;;;373.98;;
57231;SDS011;43488;46.934;8.276;2023-07-16T09:41:56;632.83;;;384.85;;
57231;SDS011;43488;46.934;8.276;2023-07-16T09:44:25;631.78;;;439.45;;
57231;SDS011;43488;46.934;8.276;2023-07-16T09:46:52;632.63;;;445.35;;
57231;SDS011;43488;46.934;8.276;2023-07-16T09:49:20;631.92;;;438.48;;
57231;SDS011;43488;46.934;8.276;2023-07-16T09:51:48;640.42;;;402.88;;
57231;SDS011;43488;46.934;8.276;2023-07-16T09:54:24;641.95;;;391.17;;
57231;SDS011;43488;46.934;8.276;2023-07-16T09:56:57;636.25;;;395.73;;
57231;SDS011;43488;46.934;8.276;2023-07-16T09:59:28;641.95;;;390.13;;
57231;SDS011;43488;46.934;8.276;2023-07-16T10:01:59;635.50;;;388.77;;
57231;SDS011;43488;46.934;8.276;2023-07-16T10:04:36;635.15;;;382.92;;
57231;SDS011;43488;46.934;8.276;2023-07-16T10:07:06;634.42;;;450.10;;
57231;SDS011;43488;46.934;8.276;2023-07-16T10:12:28;629.28;;;449.77;;
57231;SDS011;43488;46.934;8.276;2023-07-16T10:14:55;631.67;;;369.45;;
57231;SDS011;43488;46.934;8.276;2023-07-16T10:17:29;618.10;;;410.80;;
57231;SDS011;43488;46.934;8.276;2023-07-16T10:22:37;630.58;;;459.90;;
57231;SDS011;43488;46.934;8.276;2023-07-16T10:25:09;648.20;;;404.80;;
57231;SDS011;43488;46.934;8.276;2023-07-16T10:27:46;646.63;;;406.15;;
57231;SDS011;43488;46.934;8.276;2023-07-16T10:30:15;631.55;;;450.30;;
57231;SDS011;43488;46.934;8.276;2023-07-16T10:32:43;656.88;;;460.95;;
57231;SDS011;43488;46.934;8.276;2023-07-16T10:35:12;657.88;;;408.58;;
57231;SDS011;43488;46.934;8.276;2023-07-16T10:37:40;658.20;;;408.88;;
57231;SDS011;43488;46.934;8.276;2023-07-16T10:40:11;643.10;;;404.13;;
57231;SDS011;43488;46.934;8.276;2023-07-16T10:42:41;644.55;;;464.75;;
57231;SDS011;43488;46.934;8.276;2023-07-16T10:45:10;640.80;;;448.08;;
57231;SDS011;43488;46.934;8.276;2023-07-16T10:47:52;649.85;;;418.70;;
57231;SDS011;43488;46.934;8.276;2023-07-16T10:50:21;646.72;;;411.25;;
57231;SDS011;43488;46.934;8.276;2023-07-16T10:52:52;642.67;;;391.60;;
57231;SDS011;43488;46.934;8.276;2023-07-16T10:55:23;637.85;;;446.23;;
57231;SDS011;43488;46.934;8.276;2023-07-16T10:57:54;649.47;;;413.63;;
57231;SDS011;43488;46.934;8.276;2023-07-16T11:00:23;644.35;;;412.38;;
57231;SDS011;43488;46.934;8.276;2023-07-16T11:02:51;647.88;;;413.40;;
57231;SDS011;43488;46.934;8.276;2023-07-16T11:05:19;646.60;;;424.88;;
57231;SDS011;43488;46.934;8.276;2023-07-16T11:07:47;647.28;;;418.33;;
57231;SDS011;43488;46.934;8.276;2023-07-16T11:10:16;647.22;;;471.65;;
57231;SDS011;43488;46.934;8.276;2023-07-16T11:12:44;655.35;;;439.50;;
57231;SDS011;43488;46.934;8.276;2023-07-16T11:15:18;648.90;;;415.00;;
57231;SDS011;43488;46.934;8.276;2023-07-16T11:17:56;656.50;;;422.92;;
57231;SDS011;43488;46.934;8.276;2023-07-16T11:20:24;648.13;;;412.15;;
57231;SDS011;43488;46.934;8.276;2023-07-16T11:22:51;643.40;;;466.85;;
57231;SDS011;43488;46.934;8.276;2023-07-16T11:25:19;640.45;;;460.88;;
57231;SDS011;43488;46.934;8.276;2023-07-16T11:27:46;649.35;;;418.95;;
57231;SDS011;43488;46.934;8.276;2023-07-16T11:30:13;651.17;;;431.95;;
57231;SDS011;43488;46.934;8.276;2023-07-16T11:32:42;650.03;;;474.90;;
57231;SDS011;43488;46.934;8.276;2023-07-16T11:35:16;661.10;;;433.65;;
57231;SDS011;43488;46.934;8.276;2023-07-16T11:37:46;658.55;;;432.17;;
57231;SDS011;43488;46.934;8.276;2023-07-16T11:40:15;651.03;;;426.25;;
57231;SDS011;43488;46.934;8.276;2023-07-16T11:47:49;655.70;;;432.92;;
57231;SDS011;43488;46.934;8.276;2023-07-16T11:50:17;655.10;;;427.40;;
57231;SDS011;43488;46.934;8.276;2023-07-16T11:52:54;656.95;;;475.77;;
57231;SDS011;43488;46.934;8.276;2023-07-16T11:55:25;654.30;;;431.42;;
57231;SDS011;43488;46.934;8.276;2023-07-16T11:57:53;660.90;;;441.50;;
57231;SDS011;43488;46.934;8.276;2023-07-16T12:00:23;643.42;;;412.75;;
57231;SDS011;43488;46.934;8.276;2023-07-16T12:02:50;641.92;;;421.35;;
57231;SDS011;43488;46.934;8.276;2023-07-16T12:05:18;645.75;;;421.63;;
57231;SDS011;43488;46.934;8.276;2023-07-16T12:07:50;651.03;;;477.95;;
57231;SDS011;43488;46.934;8.276;2023-07-16T12:10:18;653.85;;;434.52;;
57231;SDS011;43488;46.934;8.276;2023-07-16T12:12:46;650.17;;;429.70;;
57231;SDS011;43488;46.934;8.276;2023-07-16T12:15:14;648.22;;;413.65;;
57231;SDS011;43488;46.934;8.276;2023-07-16T12:17:42;650.22;;;425.70;;
57231;SDS011;43488;46.934;8.276;2023-07-16T12:20:10;647.30;;;421.00;;
57231;SDS011;43488;46.934;8.276;2023-07-16T12:22:38;650.08;;;482.48;;
57231;SDS011;43488;46.934;8.276;2023-07-16T12:25:05;637.63;;;459.30;;
57231;SDS011;43488;46.934;8.276;2023-07-16T12:27:33;635.90;;;403.95;;
57231;SDS011;43488;46.934;8.276;2023-07-16T12:30:00;641.85;;;420.13;;
57231;SDS011;43488;46.934;8.276;2023-07-16T12:32:28;650.17;;;443.63;;
57231;SDS011;43488;46.934;8.276;2023-07-16T12:34:55;634.22;;;458.08;;
57231;SDS011;43488;46.934;8.276;2023-07-16T12:37:23;640.05;;;475.33;;
57231;SDS011;43488;46.934;8.276;2023-07-16T12:39:51;639.22;;;467.98;;
57231;SDS011;43488;46.934;8.276;2023-07-16T12:42:20;655.13;;;428.83;;
57231;SDS011;43488;46.934;8.276;2023-07-16T12:44:48;627.95;;;446.15;;
57231;SDS011;43488;46.934;8.276;2023-07-16T12:47:16;651.42;;;422.92;;
57231;SDS011;43488;46.934;8.276;2023-07-16T12:49:43;663.35;;;438.35;;
57231;SDS011;43488;46.934;8.276;2023-07-16T12:52:11;659.67;;;484.15;;
57231;SDS011;43488;46.934;8.276;2023-07-16T12:54:38;645.22;;;466.25;;
57231;SDS011;43488;46.934;8.276;2023-07-16T12:57:05;652.42;;;438.33;;
57231;SDS011;43488;46.934;8.276;2023-07-16T12:59:33;664.20;;;454.48;;
57231;SDS011;43488;46.934;8.276;2023-07-16T13:02:00;656.92;;;446.15;;
57231;SDS011;43488;46.934;8.276;2023-07-16T13:04:27;657.65;;;474.02;;
57231;SDS011;43488;46.934;8.276;2023-07-16T13:06:56;662.40;;;479.52;;
57231;SDS011;43488;46.934;8.276;2023-07-16T13:09:23;662.33;;;476.67;;
57231;SDS011;43488;46.934;8.276;2023-07-16T13:11:50;666.13;;;447.42;;
57231;SDS011;43488;46.934;8.276;2023-07-16T13:14:18;661.55;;;439.05;;
57231;SDS011;43488;46.934;8.276;2023-07-16T13:16:45;639.38;;;472.95;;
57231;SDS011;43488;46.934;8.276;2023-07-16T13:19:12;656.08;;;435.20;;
57231;SDS011;43488;46.934;8.276;2023-07-16T13:21:39;641.55;;;484.50;;
57231;SDS011;43488;46.934;8.276;2023-07-16T13:24:06;650.38;;;437.77;;
57231;SDS011;43488;46.934;8.276;2023-07-16T13:26:34;657.65;;;491.45;;
57231;SDS011;43488;46.934;8.276;2023-07-16T13:29:03;647.95;;;486.75;;
57231;SDS011;43488;46.934;8.276;2023-07-16T13:31:31;660.22;;;451.42;;
57231;SDS011;43488;46.934;8.276;2023-07-16T13:33:59;640.83;;;475.63;;
57231;SDS011;43488;46.934;8.276;2023-07-16T13:36:26;664.63;;;460.08;;
57231;SDS011;43488;46.934;8.276;2023-07-16T13:38:54;655.25;;;477.48;;
57231;SDS011;43488;46.934;8.276;2023-07-16T13:41:22;671.95;;;494.83;;
57231;SDS011;43488;46.934;8.276;2023-07-16T13:43:50;669.50;;;439.85;;
57231;SDS011;43488;46.934;8.276;2023-07-16T13:46:18;679.72;;;489.38;;
57231;SDS011;43488;46.934;8.276;2023-07-16T13:48:46;682.80;;;486.08;;
57231;SDS011;43488;46.934;8.276;2023-07-16T13:51:13;679.22;;;483.48;;
57231;SDS011;43488;46.934;8.276;2023-07-16T13:53:40;677.40;;;443.55;;
57231;SDS011;43488;46.934;8.276;2023-07-16T13:56:08;682.80;;;478.13;;
57231;SDS011;43488;46.934;8.276;2023-07-16T13:58:35;688.75;;;489.08;;
57231;SDS011;43488;46.934;8.276;2023-07-16T14:01:03;680.60;;;447.23;;
57231;SDS011;43488;46.934;8.276;2023-07-16T14:03:30;680.38;;;438.35;;
57231;SDS011;43488;46.934;8.276;2023-07-16T14:05:58;685.20;;;481.65;;
57231;SDS011;43488;46.934;8.276;2023-07-16T14:08:27;687.10;;;448.23;;
57231;SDS011;43488;46.934;8.276;2023-07-16T14:10:54;690.00;;;493.17;;
57231;SDS011;43488;46.934;8.276;2023-07-16T14:13:22;689.08;;;479.92;;
57231;SDS011;43488;46.934;8.276;2023-07-16T14:15:49;688.33;;;481.00;;
57231;SDS011;43488;46.934;8.276;2023-07-16T14:18:16;689.00;;;485.52;;
57231;SDS011;43488;46.934;8.276;2023-07-16T14:20:45;690.85;;;490.75;;
57231;SDS011;43488;46.934;8.276;2023-07-16T14:23:12;688.72;;;448.90;;
57231;SDS011;43488;46.934;8.276;2023-07-16T14:25:42;682.47;;;482.67;;